Time;durP1;ratioP1;P1;durP2;ratioP2;P2;SDS_P1;SDS_P2;PMS_P1;PMS_P2;Temp;Humidity;BMP_temperature;BMP_pressure;BME280_temperature;BME280_humidity;BME280_pressure;Samples;Min_cycle;Max_cycle;Signal;HPM_P1;HPM_P2
2023/08/23 00:00:55;;;;;;;5.13;1.95;;;15.70;99.90;;;14.74;96.05;101484.50;4963866;28;20486;-72
2023/08/23 00:03:21;;;;;;;15.45;3.55;;;15.60;99.90;;;14.68;95.36;101487.47;4949428;28;20554;-73
2023/08/23 00:05:46;;;;;;;4.45;2.60;;;15.60;99.90;;;14.57;96.03;101486.22;4963174;28;20093;-72
2023/08/23 00:08:12;;;;;;;7.65;2.00;;;15.50;99.90;;;14.47;95.74;101502.66;4965975;28;20035;-73
2023/08/23 00:10:38;;;;;;;4.53;1.90;;;15.40;99.90;;;14.35;94.06;101499.69;4963809;28;20067;-72
2023/08/23 00:13:07;;;;;;;3.97;2.28;;;15.30;99.90;;;14.19;93.20;101504.06;4947419;28;20085;-73
2023/08/23 00:15:33;;;;;;;5.93;2.22;;;15.20;99.90;;;14.09;92.10;101493.03;4950770;28;20114;-72
2023/08/23 00:17:58;;;;;;;16.02;5.70;;;15.10;99.90;;;14.05;92.30;101491.47;4950183;28;20162;-73
2023/08/23 00:20:24;;;;;;;8.70;4.38;;;15.00;99.90;;;14.00;94.44;101485.56;4963084;28;20412;-73
2023/08/23 00:22:50;;;;;;;16.92;8.07;;;14.90;99.90;;;13.97;96.30;101480.38;4962775;28;20642;-72
2023/08/23 00:25:16;;;;;;;10.55;4.80;;;14.90;99.90;;;13.97;98.35;101476.88;4951615;28;20059;-72
2023/08/23 00:27:41;;;;;;;17.00;7.38;;;14.90;99.90;;;13.95;100.00;101472.53;4931504;28;20035;-72
2023/08/23 00:30:08;;;;;;;17.70;8.40;;;14.90;99.90;;;13.97;100.00;101472.44;4952521;28;20066;-72
2023/08/23 00:32:34;;;;;;;19.13;8.05;;;15.00;99.90;;;14.00;100.00;101471.47;4960853;28;20035;-71
2023/08/23 00:34:59;;;;;;;19.70;7.18;;;15.00;99.90;;;14.02;100.00;101480.19;4945339;28;20065;-72
2023/08/23 00:37:25;;;;;;;14.48;6.28;;;15.00;99.90;;;14.05;100.00;101472.09;4962675;28;20054;-73
2023/08/23 00:39:51;;;;;;;12.95;5.97;;;15.00;99.90;;;14.01;100.00;101462.56;4937531;28;20455;-74
2023/08/23 00:42:17;;;;;;;12.63;5.72;;;14.90;99.90;;;14.00;100.00;101458.22;4952724;28;20125;-72
2023/08/23 00:44:42;;;;;;;11.55;4.10;;;14.90;99.90;;;13.99;100.00;101465.28;4963094;28;20129;-72
2023/08/23 00:47:08;;;;;;;8.13;3.60;;;14.90;99.90;;;13.99;100.00;101464.44;4945647;28;20122;-72
2023/08/23 00:49:34;;;;;;;9.88;5.28;;;14.90;99.90;;;13.94;100.00;101468.16;4948665;28;20114;-71
2023/08/23 00:52:04;;;;;;;10.10;4.13;;;14.90;99.90;;;13.97;100.00;101475.09;4953265;28;20027;-73
2023/08/23 00:54:29;;;;;;;6.45;2.63;;;14.90;99.90;;;13.93;100.00;101481.47;4968343;28;20126;-72
2023/08/23 00:57:00;;;;;;;29.75;2.13;;;14.90;99.90;;;13.84;100.00;101477.47;4951949;28;20112;-72
2023/08/23 00:59:25;;;;;;;9.15;2.55;;;14.80;99.90;;;13.77;100.00;101488.44;4950767;28;20041;-72
2023/08/23 01:01:51;;;;;;;239.23;5.95;;;14.70;99.90;;;13.65;100.00;101481.94;4949737;28;20411;-72
2023/08/23 01:04:17;;;;;;;3.65;1.05;;;14.60;99.90;;;13.51;99.08;101477.31;4946748;28;20171;-72
2023/08/23 01:07:08;;;;;;;1.65;1.00;;;14.50;99.90;;;13.42;98.33;101478.59;4933364;28;20110;-72
2023/08/23 01:10:04;;;;;;;1.50;1.40;;;14.40;99.90;;;13.33;97.40;101471.94;4963878;28;20030;-72
2023/08/23 01:12:40;;;;;;;21.27;4.13;;;14.30;99.90;;;13.29;98.10;101475.66;4953637;28;20411;-72
2023/08/23 01:15:10;;;;;;;9.57;4.63;;;14.20;99.90;;;13.28;98.40;101471.31;4953331;28;20042;-72
2023/08/23 01:17:42;;;;;;;7.60;4.18;;;14.30;99.90;;;13.27;99.26;101472.19;4944855;28;20039;-72
2023/08/23 01:20:13;;;;;;;8.88;3.70;;;14.30;99.90;;;13.26;99.33;101465.19;4951866;28;20034;-72
2023/08/23 01:22:52;;;;;;;7.13;3.25;;;14.20;99.90;;;13.27;99.40;101468.69;4951571;28;20089;-74
2023/08/23 01:25:18;;;;;;;12.77;4.63;;;14.20;99.90;;;13.28;99.56;101467.75;4960725;28;20037;-72
2023/08/23 01:27:44;;;;;;;13.63;5.18;;;14.20;99.90;;;13.29;100.00;101470.38;4951531;28;20130;-72
2023/08/23 01:30:14;;;;;;;6.82;4.40;;;14.20;99.90;;;13.27;100.00;101477.47;4951604;28;20031;-72
2023/08/23 01:33:05;;;;;;;4.82;2.40;;;14.20;99.90;;;13.23;99.42;101473.25;4960598;28;20054;-74
2023/08/23 01:36:07;;;;;;;5.22;2.45;;;14.20;99.90;;;13.20;99.27;101476.06;4975805;23;20053;-78
2023/08/23 01:38:34;;;;;;;7.75;5.30;;;14.20;99.90;;;13.17;99.40;101470.88;4948089;28;20047;-78
2023/08/23 01:41:01;;;;;;;17.58;6.43;;;14.20;99.90;;;13.21;100.00;101477.75;4940341;29;20063;-77
2023/08/23 01:43:26;;;;;;;22.98;11.40;;;14.20;99.90;;;13.26;100.00;101485.47;4947402;29;20031;-78
2023/08/23 01:45:52;;;;;;;24.17;12.90;;;14.30;99.90;;;13.34;100.00;101484.22;4949043;28;20050;-77
2023/08/23 01:48:18;;;;;;;28.40;13.82;;;14.30;99.90;;;13.42;100.00;101475.09;4926386;29;20023;-78
2023/08/23 01:50:47;;;;;;;18.92;10.07;;;14.40;99.90;;;13.48;100.00;101482.75;4943034;29;20407;-78
2023/08/23 01:53:13;;;;;;;21.42;13.05;;;14.50;99.90;;;13.50;100.00;101473.81;4925554;29;20122;-77
2023/08/23 01:55:39;;;;;;;14.15;7.60;;;14.50;99.90;;;13.53;100.00;101478.94;4950767;29;20033;-77
2023/08/23 01:58:04;;;;;;;20.10;10.98;;;14.50;99.90;;;13.55;100.00;101476.25;4940924;29;20066;-77
2023/08/23 02:00:30;;;;;;;37.75;16.80;;;14.50;99.90;;;13.55;100.00;101481.53;4915058;29;20062;-77
2023/08/23 02:03:01;;;;;;;40.88;20.27;;;14.50;99.90;;;13.55;100.00;101486.81;4932142;29;20039;-77
2023/08/23 02:05:29;;;;;;;49.95;4.63;;;14.50;99.90;;;13.45;100.00;101488.16;4943051;29;20024;-78
2023/08/23 02:07:55;;;;;;;10.30;5.00;;;14.30;99.90;;;13.26;100.00;101491.66;4949014;29;20094;-78
2023/08/23 02:10:20;;;;;;;6.82;3.35;;;14.20;99.90;;;13.15;100.00;101480.69;4935921;29;20028;-77
2023/08/23 02:12:47;;;;;;;16.33;5.45;;;14.20;99.90;;;13.08;100.00;101482.75;4940398;29;20039;-77
2023/08/23 02:15:15;;;;;;;18.30;8.48;;;14.10;99.90;;;13.06;100.00;101478.44;4946445;28;20038;-77
2023/08/23 02:17:41;;;;;;;10.23;5.35;;;14.00;99.90;;;13.03;100.00;101475.97;4928352;29;20451;-77
2023/08/23 02:20:07;;;;;;;8.82;5.05;;;14.00;99.90;;;13.00;100.00;101473.44;4934371;29;20059;-78
2023/08/23 02:22:33;;;;;;;10.18;5.60;;;14.00;99.90;;;12.93;100.00;101473.69;4942210;29;20059;-77
2023/08/23 02:24:58;;;;;;;6.25;5.15;;;13.90;99.90;;;12.88;100.00;101473.06;4917684;29;20496;-78
2023/08/23 02:27:24;;;;;;;8.30;4.10;;;13.90;99.90;;;12.89;100.00;101481.84;4943587;28;20577;-77
2023/08/23 02:29:50;;;;;;;5.97;3.80;;;13.90;99.90;;;12.91;100.00;101480.88;4942686;29;20118;-77
2023/08/23 02:32:16;;;;;;;7.03;3.00;;;13.90;99.90;;;12.92;100.00;101484.38;4932944;29;20534;-78
2023/08/23 02:34:46;;;;;;;8.23;4.65;;;13.90;99.90;;;12.90;100.00;101480.94;4943012;29;20062;-77
2023/08/23 02:37:12;;;;;;;1.73;1.63;;;13.80;99.90;;;12.86;100.00;101479.34;4925647;29;20090;-77
2023/08/23 02:39:38;;;;;;;5.15;2.63;;;13.80;99.90;;;12.83;100.00;101479.47;4925110;29;20078;-78
2023/08/23 02:42:04;;;;;;;6.22;1.83;;;13.80;99.90;;;12.79;100.00;101475.28;4940116;28;20134;-77
2023/08/23 02:44:29;;;;;;;2.55;1.10;;;13.80;99.90;;;12.73;100.00;101481.66;4925623;29;20404;-77
2023/08/23 02:46:55;;;;;;;1.85;0.70;;;13.70;99.90;;;12.65;100.00;101473.22;4942826;29;20066;-77
2023/08/23 02:49:29;;;;;;;1.95;1.25;;;13.60;99.90;;;12.59;100.00;101468.19;4944225;29;20063;-77
2023/08/23 02:51:54;;;;;;;5.28;2.00;;;13.60;99.90;;;12.54;100.00;101459.63;4943359;29;20038;-78
2023/08/23 02:54:20;;;;;;;8.23;5.43;;;13.50;99.90;;;12.52;100.00;101459.66;4941705;29;20035;-77
2023/08/23 02:56:46;;;;;;;8.75;3.75;;;13.50;99.90;;;12.50;100.00;101462.41;4939531;28;20027;-78
2023/08/23 02:59:19;;;;;;;5.55;2.88;;;13.50;99.90;;;12.49;100.00;101463.31;4933088;29;20492;-78
2023/08/23 03:01:45;;;;;;;6.60;2.08;;;13.50;99.90;;;12.46;100.00;101455.53;4943880;29;20036;-78
2023/08/23 03:04:11;;;;;;;8.50;3.05;;;13.40;99.90;;;12.44;100.00;101467.94;4940197;29;20106;-78
2023/08/23 03:06:36;;;;;;;5.55;2.90;;;13.40;99.90;;;12.42;100.00;101463.63;4928302;29;20119;-78
2023/08/23 03:09:02;;;;;;;4.82;2.45;;;13.40;99.90;;;12.39;100.00;101464.63;4942108;29;20115;-77
2023/08/23 03:11:33;;;;;;;6.95;2.90;;;13.40;99.90;;;12.35;100.00;101465.66;4946209;29;20043;-78
2023/08/23 03:13:59;;;;;;;1.38;1.23;;;13.30;99.90;;;12.29;100.00;101466.81;4924887;29;20042;-78
2023/08/23 03:16:25;;;;;;;4.80;3.10;;;13.30;99.90;;;12.26;100.00;101459.00;4930484;29;20067;-77
2023/08/23 03:18:50;;;;;;;20.27;11.02;;;13.30;99.90;;;12.30;100.00;101451.81;4945541;29;20062;-78
2023/08/23 03:21:16;;;;;;;18.10;10.15;;;13.40;99.90;;;12.41;100.00;101457.50;4943770;29;20044;-76
2023/08/23 03:23:42;;;;;;;22.48;10.85;;;13.40;99.90;;;12.49;100.00;101459.81;4945961;29;20019;-78
2023/08/23 03:26:08;;;;;;;29.10;17.15;;;13.50;99.90;;;12.56;100.00;101452.47;4941690;29;20063;-78
2023/08/23 03:28:36;;;;;;;33.65;16.63;;;13.60;99.90;;;12.62;100.00;101457.50;4927018;29;20119;-77
2023/08/23 03:31:03;;;;;;;17.33;11.02;;;13.60;99.90;;;12.64;100.00;101455.66;4941011;29;20119;-77
2023/08/23 03:33:29;;;;;;;14.73;8.30;;;13.60;99.90;;;12.62;100.00;101470.72;4940330;29;20027;-78
2023/08/23 03:35:55;;;;;;;7.45;5.20;;;13.60;99.90;;;12.61;100.00;101461.06;4938033;28;20031;-78
2023/08/23 03:38:21;;;;;;;5.88;4.10;;;13.60;99.90;;;12.57;100.00;101467.41;4945809;28;20027;-77
2023/08/23 03:40:52;;;;;;;9.80;5.55;;;13.60;99.90;;;12.54;100.00;101464.91;4945871;29;20032;-77
2023/08/23 03:43:18;;;;;;;7.00;4.47;;;13.60;99.90;;;12.55;100.00;101462.19;4921534;29;20116;-78
2023/08/23 03:45:48;;;;;;;12.70;6.38;;;13.50;99.90;;;12.54;100.00;101462.25;4951480;28;20031;-78
2023/08/23 03:48:18;;;;;;;113.53;4.88;;;13.60;99.90;;;12.52;100.00;101467.59;4945842;29;20114;-77
2023/08/23 03:50:46;;;;;;;2.17;1.67;;;13.50;99.90;;;12.37;100.00;101457.69;4935317;29;20103;-77
2023/08/23 03:53:12;;;;;;;4.90;2.70;;;13.40;99.90;;;12.29;100.00;101458.03;4927580;29;20042;-77
2023/08/23 03:55:38;;;;;;;7.13;2.92;;;13.30;99.90;;;12.25;100.00;101456.44;4951557;28;20114;-77
2023/08/23 03:58:04;;;;;;;10.10;3.83;;;13.30;99.90;;;12.24;100.00;101460.84;4938296;29;20038;-77
2023/08/23 04:00:30;;;;;;;20.55;7.28;;;13.20;99.90;;;12.26;100.00;101468.69;4933570;29;20031;-77
2023/08/23 04:02:56;;;;;;;8.60;5.00;;;13.20;99.90;;;12.28;100.00;101464.22;4944590;29;21102;-77
2023/08/23 04:05:24;;;;;;;3.25;2.58;;;13.30;99.90;;;12.28;100.00;101461.56;4926838;29;20027;-78
2023/08/23 04:07:50;;;;;;;4.47;2.30;;;13.20;99.90;;;12.27;100.00;101463.38;4943433;28;20474;-78
2023/08/23 04:10:16;;;;;;;31.02;7.78;;;13.30;99.90;;;12.28;100.00;101467.72;4937627;29;20115;-78
2023/08/23 04:12:41;;;;;;;13.00;4.05;;;13.30;99.90;;;12.28;100.00;101459.78;4928152;29;20040;-78
2023/08/23 04:15:08;;;;;;;8.30;2.63;;;13.30;99.90;;;12.26;100.00;101468.69;4918792;29;20172;-78
2023/08/23 04:17:33;;;;;;;751.63;19.40;;;13.30;99.90;;;12.25;100.00;101474.91;4926885;29;20027;-78
2023/08/23 04:19:59;;;;;;;4.53;4.13;;;13.20;99.90;;;12.26;100.00;101471.34;4930524;29;20558;-78
2023/08/23 04:22:27;;;;;;;2.95;2.65;;;13.20;99.90;;;12.27;100.00;101478.34;4931372;29;20455;-78
2023/08/23 04:24:53;;;;;;;281.73;9.13;;;13.30;99.90;;;12.33;100.00;101486.00;4942748;29;20106;-78
2023/08/23 04:27:19;;;;;;;7.00;3.17;;;13.30;99.90;;;12.41;100.00;101491.81;4945381;29;20499;-77
2023/08/23 04:29:45;;;;;;;5.65;3.33;;;13.30;99.90;;;12.49;100.00;101488.88;4937397;29;20126;-78
2023/08/23 04:32:12;;;;;;;18.90;3.50;;;13.40;99.90;;;12.55;100.00;101490.38;4942244;29;20110;-78
2023/08/23 04:34:38;;;;;;;3.58;3.28;;;13.50;99.90;;;12.63;100.00;101483.84;4929277;29;20034;-77
2023/08/23 04:37:11;;;;;;;798.17;24.67;;;13.50;99.90;;;12.73;100.00;101479.03;4947920;28;20035;-78
2023/08/23 04:39:37;;;;;;;381.20;12.50;;;13.60;99.90;;;12.82;100.00;101480.41;4945259;29;20067;-78
2023/08/23 04:42:05;;;;;;;372.27;13.43;;;13.70;99.90;;;12.86;100.00;101477.56;4949588;29;20452;-78
2023/08/23 04:44:31;;;;;;;75.35;10.15;;;13.70;99.90;;;12.92;100.00;101479.09;4950770;29;20039;-78
2023/08/23 04:46:58;;;;;;;12.57;7.80;;;13.80;99.90;;;13.00;100.00;101487.53;4943744;29;20034;-78
2023/08/23 04:49:24;;;;;;;5.10;4.60;;;13.80;99.90;;;13.13;100.00;101493.09;4948902;29;20039;-77
2023/08/23 04:51:50;;;;;;;4.80;4.30;;;14.00;99.90;;;13.29;100.00;101502.09;4911233;29;20126;-77
2023/08/23 04:54:15;;;;;;;5.93;3.67;;;14.10;99.90;;;13.47;100.00;101494.25;4943728;29;20575;-78
2023/08/23 04:56:41;;;;;;;4.18;3.83;;;14.30;99.90;;;13.65;100.00;101492.53;4917139;29;20170;-78
2023/08/23 04:59:07;;;;;;;10.27;4.47;;;14.40;99.90;;;13.88;100.00;101494.94;4943170;29;20119;-78
2023/08/23 05:01:33;;;;;;;10.88;6.38;;;14.60;99.90;;;14.18;100.00;101497.03;4935273;29;20118;-77
2023/08/23 05:03:59;;;;;;;11.07;6.15;;;15.00;99.90;;;14.73;100.00;101482.81;4935038;29;20028;-77
2023/08/23 05:06:28;;;;;;;7.80;6.15;;;15.40;99.90;;;16.18;98.81;101505.00;4943197;28;20132;-78
2023/08/23 05:08:54;;;;;;;10.88;6.90;;;16.20;99.90;;;16.85;91.69;101515.28;4920070;29;20032;-78
2023/08/23 05:11:19;;;;;;;12.45;7.80;;;16.50;99.90;;;16.28;92.84;101500.81;4935644;29;20046;-78
2023/08/23 05:13:45;;;;;;;17.15;7.50;;;16.60;99.90;;;16.13;93.51;101499.94;4943780;29;20074;-77
2023/08/23 05:16:12;;;;;;;13.77;7.43;;;16.60;99.90;;;16.09;94.48;101508.16;4941501;28;20070;-77
2023/08/23 05:18:38;;;;;;;18.05;9.00;;;16.60;99.90;;;16.06;95.05;101511.00;4942211;29;20035;-77
2023/08/23 05:21:09;;;;;;;9.25;5.47;;;16.60;99.90;;;15.98;94.41;101508.75;4933883;29;20525;-77
2023/08/23 05:23:35;;;;;;;4.88;4.38;;;16.80;99.90;;;18.01;89.24;101533.72;4934458;29;20031;-78
2023/08/23 05:26:02;;;;;;;10.50;4.90;;;17.00;99.90;;;17.11;86.33;101509.22;4943147;28;20031;-77
2023/08/23 05:28:28;;;;;;;7.22;3.92;;;17.80;99.90;;;20.91;77.18;101549.75;4940671;29;20118;-77
2023/08/23 05:30:54;;;;;;;8.00;4.10;;;18.80;99.90;;;20.65;72.60;101528.50;4945968;29;20023;-77
2023/08/23 05:33:20;;;;;;;11.00;5.10;;;19.50;99.90;;;20.99;72.62;101535.75;4941425;29;20392;-77
2023/08/23 05:35:48;;;;;;;10.63;5.25;;;20.40;99.90;;;24.49;64.74;101565.19;4943024;29;20035;-78
2023/08/23 05:38:14;;;;;;;10.68;5.40;;;22.00;99.90;;;27.22;57.30;101579.91;4942087;29;20043;-78
2023/08/23 05:40:40;;;;;;;13.10;5.60;;;23.70;99.90;;;29.13;53.15;101591.84;4937529;29;20106;-77
2023/08/23 05:43:07;;;;;;;13.88;5.30;;;24.70;99.90;;;28.46;53.80;101583.88;4927819;29;20037;-77
2023/08/23 05:45:33;;;;;;;11.13;4.88;;;25.70;99.90;;;28.95;51.16;101600.16;4944859;28;20039;-77
2023/08/23 05:47:59;;;;;;;6.47;4.40;;;26.40;99.90;;;31.23;47.80;101637.16;4917420;29;20027;-77
2023/08/23 05:50:25;;;;;;;8.23;4.28;;;27.50;99.90;;;32.93;44.78;101642.38;4942381;29;20517;-77
2023/08/23 05:52:53;;;;;;;11.23;4.63;;;28.70;99.90;;;34.19;42.69;101660.59;4929254;29;20035;-78
2023/08/23 05:55:19;;;;;;;10.23;4.07;;;29.70;99.90;;;34.73;41.29;101662.41;4948278;28;20122;-78
2023/08/23 05:57:45;;;;;;;11.13;4.25;;;30.50;99.90;;;33.93;41.30;101667.63;4948523;29;20114;-78
2023/08/23 06:00:11;;;;;;;8.43;3.90;;;30.20;99.90;;;30.60;46.26;101631.06;4932117;29;20523;-77
2023/08/23 06:02:37;;;;;;;12.68;4.30;;;30.10;99.90;;;33.78;41.80;101672.38;4945102;29;20036;-77
2023/08/23 06:05:05;;;;;;;7.78;4.13;;;30.50;99.90;;;34.63;40.52;101679.25;4941037;28;20043;-77
2023/08/23 06:07:33;;;;;;;15.00;4.10;;;31.10;99.90;;;35.91;38.72;101689.06;4941713;29;20086;-77
2023/08/23 06:09:59;;;;;;;9.60;3.50;;;31.80;99.90;;;36.07;38.10;101705.03;4929573;29;20174;-78
2023/08/23 06:12:27;;;;;;;11.65;3.78;;;32.20;99.30;;;34.88;39.27;101684.97;4931740;29;20122;-78
2023/08/23 06:14:54;;;;;;;8.55;3.55;;;32.00;98.60;;;33.59;41.20;101665.78;4932537;28;20035;-78
2023/08/23 06:17:22;;;;;;;9.73;3.40;;;31.80;98.80;;;34.58;39.88;101680.88;4933204;29;20043;-78
2023/08/23 06:19:51;;;;;;;9.63;3.88;;;32.10;98.90;;;35.54;38.31;101696.94;4932238;29;20051;-78
2023/08/23 06:22:17;;;;;;;9.02;3.70;;;32.50;98.00;;;35.38;38.52;101695.50;4942979;29;20035;-78
2023/08/23 06:24:43;;;;;;;9.10;3.67;;;32.40;96.60;;;32.95;41.68;101667.59;4942620;29;20127;-78
2023/08/23 06:27:08;;;;;;;10.65;3.67;;;31.70;97.20;;;31.30;43.89;101639.97;4942249;28;20028;-78
2023/08/23 06:29:34;;;;;;;7.07;3.08;;;30.80;97.80;;;30.58;45.13;101635.84;4933203;29;20196;-77
2023/08/23 06:32:02;;;;;;;6.32;3.33;;;30.30;98.60;;;31.44;44.33;101637.31;4933106;29;20039;-78
2023/08/23 06:34:30;;;;;;;12.48;3.10;;;30.10;99.20;;;30.65;45.71;101615.91;4941323;29;20066;-78
2023/08/23 06:36:56;;;;;;;9.52;3.00;;;29.80;99.10;;;29.63;47.16;101605.13;4934645;29;20038;-78
2023/08/23 06:39:22;;;;;;;8.38;3.00;;;29.30;99.20;;;28.78;48.98;101596.63;4941065;29;20051;-77
2023/08/23 06:41:47;;;;;;;7.70;3.10;;;28.70;99.90;;;27.85;51.47;101570.56;4931668;29;20089;-77
2023/08/23 06:44:13;;;;;;;9.40;2.78;;;28.10;99.90;;;27.24;52.91;101577.88;4933499;29;20494;-77
2023/08/23 06:46:39;;;;;;;5.80;2.80;;;27.80;99.90;;;28.75;50.32;101586.13;4928700;29;20699;-77
2023/08/23 06:49:09;;;;;;;8.15;2.83;;;27.80;99.90;;;28.01;51.14;101577.88;4942754;29;20451;-77
2023/08/23 06:51:35;;;;;;;8.30;2.90;;;28.00;99.90;;;28.37;50.64;101581.16;4942197;29;20670;-78
2023/08/23 06:54:01;;;;;;;9.43;3.05;;;28.10;99.90;;;29.40;50.36;101585.19;4917063;29;20082;-77
2023/08/23 06:56:29;;;;;;;7.95;3.15;;;28.90;99.90;;;31.30;46.89;101618.22;4930995;29;20126;-78
2023/08/23 06:58:55;;;;;;;8.45;3.05;;;29.50;99.90;;;29.97;47.63;101603.94;4940942;29;20114;-77
2023/08/23 07:01:24;;;;;;;10.18;3.80;;;29.40;99.40;;;28.96;49.02;101581.03;4942529;28;20028;-77
2023/08/23 07:03:50;;;;;;;6.57;3.55;;;29.10;99.90;;;28.98;49.44;101584.38;4936612;29;20115;-78
2023/08/23 07:06:15;;;;;;;7.28;3.47;;;29.20;99.90;;;31.04;46.65;101620.38;4937294;29;20039;-78
2023/08/23 07:08:42;;;;;;;17.80;3.75;;;30.00;99.90;;;31.06;45.93;101615.59;4930759;29;20149;-78
2023/08/23 07:11:09;;;;;;;12.98;3.42;;;30.50;99.10;;;30.81;46.31;101614.94;4934524;29;20047;-79
2023/08/23 07:13:36;;;;;;;8.60;3.63;;;30.70;98.90;;;31.02;46.33;101608.81;4939290;28;20027;-78
2023/08/23 07:16:03;;;;;;;7.32;2.90;;;30.60;98.50;;;30.31;47.44;101602.75;4948033;28;20062;-79
2023/08/23 07:18:29;;;;;;;8.80;2.65;;;30.30;98.20;;;29.64;48.00;101595.94;4944947;29;20085;-78
2023/08/23 07:20:56;;;;;;;10.65;1.98;;;29.70;95.80;;;28.70;47.08;101594.75;4937874;29;20026;-78
2023/08/23 07:23:22;;;;;;;4.82;2.22;;;29.40;96.90;;;30.07;45.49;101601.03;4921651;29;20032;-78
2023/08/23 07:25:47;;;;;;;5.32;1.85;;;29.40;96.90;;;29.09;47.18;101602.19;4933173;29;20024;-78
2023/08/23 07:28:13;;;;;;;7.47;2.20;;;29.40;97.10;;;29.47;46.60;101607.03;4931823;29;20031;-78
2023/08/23 07:30:49;;;;;;;4.75;1.70;;;29.80;98.00;;;31.20;45.04;101629.38;4942346;29;20027;-78
2023/08/23 07:33:16;;;;;;;8.25;2.08;;;30.90;96.00;;;32.77;41.36;101643.53;4935225;29;20031;-78
2023/08/23 07:35:42;;;;;;;5.13;2.00;;;32.20;94.30;;;33.80;39.63;101664.84;4945063;28;20035;-77
2023/08/23 07:38:07;;;;;;;5.95;2.10;;;33.50;94.00;;;34.71;38.44;101680.97;4939119;28;20031;-77
2023/08/23 07:40:40;;;;;;;4.55;2.10;;;34.40;91.40;;;35.36;37.59;101692.13;4933471;29;20193;-77
2023/08/23 07:43:05;;;;;;;11.82;2.05;;;34.90;90.90;;;34.83;37.37;101692.94;4953607;28;20558;-78
2023/08/23 07:45:31;;;;;;;8.40;2.10;;;34.90;91.20;;;34.57;37.71;101691.00;4937766;29;20110;-78
2023/08/23 07:47:57;;;;;;;5.22;2.10;;;34.90;90.60;;;34.87;37.42;101704.31;4946988;29;20073;-78
2023/08/23 07:50:23;;;;;;;7.88;1.98;;;35.10;89.70;;;35.08;37.09;101708.75;4949133;29;20110;-78
2023/08/23 07:52:49;;;;;;;5.88;2.13;;;35.50;89.10;;;35.66;36.75;101716.31;4933099;29;20115;-78
2023/08/23 07:55:15;;;;;;;6.68;1.90;;;36.10;89.50;;;36.49;35.78;101723.81;4917842;29;20038;-78
2023/08/23 07:57:41;;;;;;;7.93;2.22;;;36.60;85.20;;;36.61;34.65;101733.06;4940049;28;20028;-78
2023/08/23 08:00:09;;;;;;;5.50;1.90;;;36.80;85.90;;;36.45;34.92;101733.53;4948405;29;20024;-78
2023/08/23 08:02:35;;;;;;;8.30;1.83;;;36.90;87.30;;;36.63;34.94;101722.72;4940687;29;20110;-78
2023/08/23 08:05:00;;;;;;;6.85;2.25;;;36.90;84.90;;;36.78;34.61;101733.34;4940840;29;20058;-78
2023/08/23 08:07:28;;;;;;;14.40;1.85;;;37.20;85.80;;;37.24;34.17;101743.16;4941973;29;20046;-78
2023/08/23 08:09:56;;;;;;;12.20;2.30;;;37.60;84.50;;;37.72;33.02;101745.25;4933866;29;20035;-77
2023/08/23 08:12:22;;;;;;;6.63;1.90;;;37.60;80.90;;;36.52;34.17;101735.19;4942166;29;20039;-78
2023/08/23 08:14:48;;;;;;;10.07;1.92;;;36.90;81.30;;;35.23;35.49;101717.63;4939814;29;20035;-78
2023/08/23 08:17:13;;;;;;;6.60;1.60;;;35.90;84.60;;;34.26;37.44;101688.81;4943831;29;20054;-78
2023/08/23 08:19:39;;;;;;;5.22;1.83;;;35.20;87.30;;;34.68;37.26;101681.34;4924882;29;20035;-78
2023/08/23 08:22:05;;;;;;;10.82;2.00;;;35.10;85.80;;;35.05;36.81;101690.00;4942207;29;20134;-78
2023/08/23 08:24:31;;;;;;;6.32;1.98;;;35.20;84.50;;;34.92;36.85;101688.94;4924442;29;20602;-78
2023/08/23 08:26:59;;;;;;;9.45;2.10;;;35.30;86.80;;;35.26;36.09;101687.06;4945149;29;20530;-77
2023/08/23 08:29:27;;;;;;;4.28;1.63;;;35.60;84.70;;;35.45;35.28;101698.22;4942590;28;20087;-78
2023/08/23 08:31:53;;;;;;;7.35;1.70;;;35.30;81.80;;;34.41;35.70;101694.97;4934995;29;20042;-78
2023/08/23 08:34:19;;;;;;;12.77;1.92;;;34.90;84.50;;;34.30;36.46;101693.66;4937012;29;20059;-78
2023/08/23 08:36:44;;;;;;;8.82;1.35;;;34.80;84.60;;;34.46;35.91;101692.44;4941456;28;20055;-78
2023/08/23 08:39:10;;;;;;;6.55;1.80;;;34.60;85.10;;;34.01;36.58;101688.47;4948000;29;20059;-78
2023/08/23 08:41:44;;;;;;;8.45;1.70;;;34.20;84.20;;;33.28;38.10;101672.47;4948534;29;20111;-78
2023/08/23 08:44:12;;;;;;;3.97;1.55;;;33.70;86.40;;;32.88;37.81;101663.97;4948477;29;20039;-79
2023/08/23 08:46:39;;;;;;;3.17;1.20;;;33.10;86.10;;;32.28;38.94;101656.00;4944507;29;20556;-77
2023/08/23 08:49:05;;;;;;;5.97;1.30;;;32.30;86.00;;;31.37;39.57;101644.50;4928572;29;20050;-77
2023/08/23 08:51:35;;;;;;;6.13;1.33;;;31.90;86.20;;;31.61;39.33;101639.84;4941131;29;20031;-78
2023/08/23 08:54:05;;;;;;;10.48;1.30;;;31.90;90.50;;;32.05;41.09;101626.22;4944382;29;20090;-78
2023/08/23 08:56:31;;;;;;;4.10;1.27;;;31.90;87.40;;;31.76;39.93;101635.22;4943540;29;20031;-78
2023/08/23 08:58:59;;;;;;;5.25;1.50;;;31.80;88.10;;;31.26;40.42;101625.91;4937359;29;20095;-78
2023/08/23 09:01:31;;;;;;;4.20;1.33;;;31.50;88.40;;;30.97;40.38;101616.69;4941562;29;20130;-78
2023/08/23 09:03:58;;;;;;;3.95;1.17;;;31.10;88.40;;;30.45;40.62;101612.84;4942037;29;20520;-78
2023/08/23 09:06:26;;;;;;;11.82;1.80;;;30.50;89.80;;;29.76;42.79;101598.28;4929988;29;20146;-77
2023/08/23 09:08:54;;;;;;;6.05;1.63;;;30.10;91.10;;;29.39;43.79;101586.19;4946270;29;20512;-78
2023/08/23 09:11:20;;;;;;;8.50;1.70;;;29.80;92.20;;;29.17;44.83;101583.19;4920486;29;20115;-78
2023/08/23 09:13:49;;;;;;;4.32;1.27;;;29.40;91.50;;;28.71;44.95;101563.94;4931914;29;20429;-77
2023/08/23 09:16:15;;;;;;;5.95;1.50;;;29.20;93.00;;;28.57;45.52;101562.75;4929726;29;20086;-78
2023/08/23 09:18:46;;;;;;;6.38;1.73;;;29.10;93.20;;;28.60;46.13;101553.44;4946804;29;20020;-78
2023/08/23 09:21:13;;;;;;;5.07;1.50;;;29.00;93.70;;;28.39;47.64;101557.47;4941998;29;21370;-78
2023/08/23 09:23:40;;;;;;;4.55;1.38;;;28.80;93.90;;;28.40;46.10;101561.88;4941851;29;20370;-78
2023/08/23 09:26:07;;;;;;;4.32;1.30;;;28.70;93.20;;;28.42;46.15;101553.56;4947668;28;20044;-78
2023/08/23 09:28:40;;;;;;;23.75;2.63;;;28.70;93.30;;;28.33;46.65;101550.00;4935364;29;20031;-78
2023/08/23 09:31:10;;;;;;;16.92;2.67;;;28.70;93.10;;;28.26;45.82;101548.16;4943057;29;20032;-78
2023/08/23 09:33:40;;;;;;;15.60;2.22;;;28.60;93.00;;;28.30;45.92;101547.66;4951740;29;20043;-79
2023/08/23 09:36:09;;;;;;;6.75;1.63;;;28.70;93.70;;;28.56;46.34;101552.09;4926660;28;20046;-78
2023/08/23 09:38:35;;;;;;;6.63;1.65;;;29.00;93.50;;;28.85;45.64;101556.97;4932254;29;20035;-78
2023/08/23 09:41:02;;;;;;;8.35;1.70;;;29.10;92.40;;;28.83;44.40;101559.00;4949247;29;20452;-77
2023/08/23 09:43:33;;;;;;;6.72;1.52;;;29.20;92.80;;;28.90;44.44;101560.03;4943578;29;20614;-78
2023/08/23 09:46:04;;;;;;;4.05;1.40;;;29.20;92.80;;;28.87;45.60;101564.94;4946377;29;20082;-78
2023/08/23 09:48:40;;;;;;;9.15;1.77;;;29.10;93.10;;;28.73;46.10;101548.34;4942534;29;20059;-77
2023/08/23 09:51:09;;;;;;;6.22;1.77;;;29.10;93.10;;;28.87;46.77;101548.66;4945073;29;20161;-78
2023/08/23 09:53:43;;;;;;;7.30;1.92;;;29.20;93.40;;;29.06;45.72;101548.28;4943818;29;20504;-78
2023/08/23 09:56:10;;;;;;;8.15;1.70;;;29.30;94.80;;;29.19;47.16;101543.19;4958550;29;20035;-78
2023/08/23 09:58:36;;;;;;;9.15;1.65;;;29.60;95.20;;;29.61;46.29;101552.00;4958954;29;20031;-78
2023/08/23 10:01:02;;;;;;;8.40;1.70;;;29.70;93.80;;;29.70;45.34;101555.56;4957904;29;20047;-78
2023/08/23 10:03:29;;;;;;;10.07;1.70;;;30.00;93.40;;;29.82;44.59;101551.44;4940954;29;20035;-78
2023/08/23 10:05:58;;;;;;;8.63;1.70;;;30.20;92.70;;;30.14;43.95;101552.25;4949814;28;20113;-78
2023/08/23 10:08:26;;;;;;;9.43;1.48;;;30.40;92.50;;;30.31;44.62;101564.72;4940800;29;20039;-78